sensor_id;sensor_type;location;lat;lon;timestamp;P1;durP1;ratioP1;P2;durP2;ratioP2
9799;SDS011;4939;52.00085300;4.17406100;2023-04-24T00:00:23;3.03;;;1.08;;
9799;SDS011;4939;52.00085300;4.17406100;2023-04-24T00:02:49;5.18;;;1.00;;
9799;SDS011;4939;52.00085300;4.17406100;2023-04-24T00:05:15;3.35;;;0.90;;
9799;SDS011;4939;52.00085300;4.17406100;2023-04-24T00:07:43;7.40;;;1.30;;
9799;SDS011;4939;52.00085300;4.17406100;2023-04-24T00:10:10;7.57;;;1.15;;
9799;SDS011;4939;52.00085300;4.17406100;2023-04-24T00:12:36;7.72;;;1.08;;
9799;SDS011;4939;52.00085300;4.17406100;2023-04-24T00:15:02;6.38;;;1.08;;
9799;SDS011;4939;52.00085300;4.17406100;2023-04-24T00:17:28;5.70;;;1.40;;
9799;SDS011;4939;52.00085300;4.17406100;2023-04-24T00:19:54;5.13;;;1.30;;
9799;SDS011;4939;52.00085300;4.17406100;2023-04-24T00:24:53;6.88;;;1.13;;
9799;SDS011;4939;52.00085300;4.17406100;2023-04-24T00:27:19;3.55;;;1.15;;
9799;SDS011;4939;52.00085300;4.17406100;2023-04-24T00:29:45;1.45;;;0.70;;
9799;SDS011;4939;52.00085300;4.17406100;2023-04-24T00:32:11;3.67;;;0.70;;
9799;SDS011;4939;52.00085300;4.17406100;2023-04-24T00:34:37;3.65;;;0.90;;
9799;SDS011;4939;52.00085300;4.17406100;2023-04-24T00:37:03;2.85;;;1.05;;
9799;SDS011;4939;52.00085300;4.17406100;2023-04-24T00:39:29;1.27;;;0.50;;
9799;SDS011;4939;52.00085300;4.17406100;2023-04-24T00:41:54;4.53;;;0.80;;
9799;SDS011;4939;52.00085300;4.17406100;2023-04-24T00:44:21;3.53;;;0.77;;
9799;SDS011;4939;52.00085300;4.17406100;2023-04-24T00:46:47;1.70;;;0.80;;
9799;SDS011;4939;52.00085300;4.17406100;2023-04-24T00:49:23;2.45;;;0.77;;
9799;SDS011;4939;52.00085300;4.17406100;2023-04-24T00:51:48;2.93;;;0.77;;
9799;SDS011;4939;52.00085300;4.17406100;2023-04-24T00:54:16;1.30;;;0.63;;
9799;SDS011;4939;52.00085300;4.17406100;2023-04-24T00:56:43;4.40;;;0.90;;
9799;SDS011;4939;52.00085300;4.17406100;2023-04-24T00:59:09;6.70;;;0.70;;
9799;SDS011;4939;52.00085300;4.17406100;2023-04-24T01:01:39;4.80;;;0.85;;
9799;SDS011;4939;52.00085300;4.17406100;2023-04-24T01:04:08;7.95;;;1.20;;
9799;SDS011;4939;52.00085300;4.17406100;2023-04-24T01:06:36;6.13;;;1.33;;
9799;SDS011;4939;52.00085300;4.17406100;2023-04-24T01:09:05;4.05;;;1.40;;
9799;SDS011;4939;52.00085300;4.17406100;2023-04-24T01:11:33;6.68;;;1.60;;
9799;SDS011;4939;52.00085300;4.17406100;2023-04-24T01:13:58;7.13;;;1.27;;
9799;SDS011;4939;52.00085300;4.17406100;2023-04-24T01:16:25;6.35;;;1.70;;
9799;SDS011;4939;52.00085300;4.17406100;2023-04-24T01:18:51;7.90;;;1.50;;
9799;SDS011;4939;52.00085300;4.17406100;2023-04-24T01:21:17;4.60;;;1.65;;
9799;SDS011;4939;52.00085300;4.17406100;2023-04-24T01:23:45;4.72;;;1.38;;
9799;SDS011;4939;52.00085300;4.17406100;2023-04-24T01:26:12;7.18;;;1.50;;
9799;SDS011;4939;52.00085300;4.17406100;2023-04-24T01:28:38;6.15;;;1.60;;
9799;SDS011;4939;52.00085300;4.17406100;2023-04-24T01:31:04;5.82;;;1.63;;
9799;SDS011;4939;52.00085300;4.17406100;2023-04-24T01:33:30;3.13;;;1.27;;
9799;SDS011;4939;52.00085300;4.17406100;2023-04-24T01:35:56;7.50;;;1.50;;
9799;SDS011;4939;52.00085300;4.17406100;2023-04-24T01:38:22;5.15;;;1.50;;
9799;SDS011;4939;52.00085300;4.17406100;2023-04-24T01:40:49;4.95;;;1.30;;
9799;SDS011;4939;52.00085300;4.17406100;2023-04-24T01:43:15;7.25;;;1.65;;
9799;SDS011;4939;52.00085300;4.17406100;2023-04-24T01:45:41;4.47;;;1.17;;
9799;SDS011;4939;52.00085300;4.17406100;2023-04-24T01:48:07;4.65;;;1.13;;
9799;SDS011;4939;52.00085300;4.17406100;2023-04-24T01:50:32;4.68;;;1.58;;
9799;SDS011;4939;52.00085300;4.17406100;2023-04-24T01:52:58;6.00;;;1.30;;
9799;SDS011;4939;52.00085300;4.17406100;2023-04-24T01:55:24;4.45;;;1.45;;
9799;SDS011;4939;52.00085300;4.17406100;2023-04-24T01:57:50;6.30;;;1.35;;
9799;SDS011;4939;52.00085300;4.17406100;2023-04-24T02:00:17;6.10;;;1.60;;
9799;SDS011;4939;52.00085300;4.17406100;2023-04-24T02:02:43;4.88;;;1.70;;
9799;SDS011;4939;52.00085300;4.17406100;2023-04-24T02:05:10;4.35;;;1.60;;
9799;SDS011;4939;52.00085300;4.17406100;2023-04-24T02:07:36;4.82;;;1.42;;
9799;SDS011;4939;52.00085300;4.17406100;2023-04-24T02:10:02;4.20;;;1.40;;
9799;SDS011;4939;52.00085300;4.17406100;2023-04-24T02:12:29;5.93;;;1.30;;
9799;SDS011;4939;52.00085300;4.17406100;2023-04-24T02:14:55;5.13;;;1.25;;
9799;SDS011;4939;52.00085300;4.17406100;2023-04-24T02:17:27;3.45;;;1.00;;
9799;SDS011;4939;52.00085300;4.17406100;2023-04-24T02:19:53;4.70;;;1.13;;
9799;SDS011;4939;52.00085300;4.17406100;2023-04-24T02:22:19;6.80;;;1.25;;
9799;SDS011;4939;52.00085300;4.17406100;2023-04-24T02:24:45;4.20;;;1.00;;
9799;SDS011;4939;52.00085300;4.17406100;2023-04-24T02:27:10;6.50;;;1.23;;
9799;SDS011;4939;52.00085300;4.17406100;2023-04-24T02:29:36;3.67;;;1.00;;
9799;SDS011;4939;52.00085300;4.17406100;2023-04-24T02:32:02;6.45;;;1.40;;
9799;SDS011;4939;52.00085300;4.17406100;2023-04-24T02:34:28;5.22;;;1.30;;
9799;SDS011;4939;52.00085300;4.17406100;2023-04-24T02:36:53;5.05;;;1.23;;
9799;SDS011;4939;52.00085300;4.17406100;2023-04-24T02:39:19;5.75;;;1.25;;
9799;SDS011;4939;52.00085300;4.17406100;2023-04-24T02:41:45;10.20;;;1.55;;
9799;SDS011;4939;52.00085300;4.17406100;2023-04-24T02:44:11;2.83;;;1.10;;
9799;SDS011;4939;52.00085300;4.17406100;2023-04-24T02:46:36;6.40;;;1.67;;
9799;SDS011;4939;52.00085300;4.17406100;2023-04-24T02:49:02;4.13;;;0.70;;
9799;SDS011;4939;52.00085300;4.17406100;2023-04-24T02:51:28;4.10;;;0.88;;
9799;SDS011;4939;52.00085300;4.17406100;2023-04-24T02:53:54;4.57;;;0.70;;
9799;SDS011;4939;52.00085300;4.17406100;2023-04-24T02:56:20;1.67;;;0.80;;
9799;SDS011;4939;52.00085300;4.17406100;2023-04-24T02:58:46;4.28;;;1.00;;
9799;SDS011;4939;52.00085300;4.17406100;2023-04-24T03:01:12;12.15;;;2.10;;
9799;SDS011;4939;52.00085300;4.17406100;2023-04-24T03:03:38;7.20;;;1.13;;
9799;SDS011;4939;52.00085300;4.17406100;2023-04-24T03:06:04;15.65;;;1.48;;
9799;SDS011;4939;52.00085300;4.17406100;2023-04-24T03:08:31;6.70;;;1.00;;
9799;SDS011;4939;52.00085300;4.17406100;2023-04-24T03:10:57;10.05;;;1.30;;
9799;SDS011;4939;52.00085300;4.17406100;2023-04-24T03:13:23;11.43;;;1.50;;
9799;SDS011;4939;52.00085300;4.17406100;2023-04-24T03:15:48;12.80;;;1.20;;
9799;SDS011;4939;52.00085300;4.17406100;2023-04-24T03:18:14;5.88;;;1.10;;
9799;SDS011;4939;52.00085300;4.17406100;2023-04-24T03:20:40;9.48;;;1.40;;
9799;SDS011;4939;52.00085300;4.17406100;2023-04-24T03:23:06;11.27;;;1.50;;
9799;SDS011;4939;52.00085300;4.17406100;2023-04-24T03:25:31;14.00;;;1.50;;
9799;SDS011;4939;52.00085300;4.17406100;2023-04-24T03:27:57;7.95;;;1.30;;
9799;SDS011;4939;52.00085300;4.17406100;2023-04-24T03:30:23;5.70;;;1.27;;
9799;SDS011;4939;52.00085300;4.17406100;2023-04-24T03:32:49;10.55;;;1.27;;
9799;SDS011;4939;52.00085300;4.17406100;2023-04-24T03:35:14;16.45;;;2.35;;
9799;SDS011;4939;52.00085300;4.17406100;2023-04-24T03:37:40;22.77;;;4.38;;
9799;SDS011;4939;52.00085300;4.17406100;2023-04-24T03:40:06;19.70;;;3.15;;
9799;SDS011;4939;52.00085300;4.17406100;2023-04-24T03:42:33;18.67;;;3.70;;
9799;SDS011;4939;52.00085300;4.17406100;2023-04-24T03:44:58;17.38;;;4.20;;
9799;SDS011;4939;52.00085300;4.17406100;2023-04-24T03:47:24;18.25;;;3.97;;
9799;SDS011;4939;52.00085300;4.17406100;2023-04-24T03:49:50;10.32;;;3.33;;
9799;SDS011;4939;52.00085300;4.17406100;2023-04-24T03:52:16;13.10;;;4.03;;
9799;SDS011;4939;52.00085300;4.17406100;2023-04-24T03:54:41;9.00;;;3.25;;
9799;SDS011;4939;52.00085300;4.17406100;2023-04-24T03:57:07;18.10;;;4.10;;
9799;SDS011;4939;52.00085300;4.17406100;2023-04-24T03:59:33;14.27;;;4.30;;
9799;SDS011;4939;52.00085300;4.17406100;2023-04-24T04:01:59;17.00;;;4.43;;
9799;SDS011;4939;52.00085300;4.17406100;2023-04-24T04:04:25;19.13;;;3.60;;
9799;SDS011;4939;52.00085300;4.17406100;2023-04-24T04:06:50;10.13;;;3.00;;
9799;SDS011;4939;52.00085300;4.17406100;2023-04-24T04:09:17;14.70;;;4.13;;
9799;SDS011;4939;52.00085300;4.17406100;2023-04-24T04:11:43;15.07;;;4.63;;
9799;SDS011;4939;52.00085300;4.17406100;2023-04-24T04:14:09;18.35;;;4.70;;
9799;SDS011;4939;52.00085300;4.17406100;2023-04-24T04:16:35;15.48;;;5.10;;
9799;SDS011;4939;52.00085300;4.17406100;2023-04-24T04:19:03;10.52;;;3.58;;
9799;SDS011;4939;52.00085300;4.17406100;2023-04-24T04:21:30;13.68;;;4.78;;
9799;SDS011;4939;52.00085300;4.17406100;2023-04-24T04:23:57;12.85;;;4.47;;
9799;SDS011;4939;52.00085300;4.17406100;2023-04-24T04:26:22;15.02;;;4.60;;
9799;SDS011;4939;52.00085300;4.17406100;2023-04-24T04:28:51;23.65;;;6.03;;
9799;SDS011;4939;52.00085300;4.17406100;2023-04-24T04:31:18;18.63;;;6.45;;
9799;SDS011;4939;52.00085300;4.17406100;2023-04-24T04:33:48;26.45;;;7.13;;
9799;SDS011;4939;52.00085300;4.17406100;2023-04-24T04:36:14;25.33;;;6.53;;
9799;SDS011;4939;52.00085300;4.17406100;2023-04-24T04:38:40;22.60;;;6.60;;
9799;SDS011;4939;52.00085300;4.17406100;2023-04-24T04:41:05;20.90;;;7.88;;
9799;SDS011;4939;52.00085300;4.17406100;2023-04-24T04:43:32;23.42;;;6.82;;
9799;SDS011;4939;52.00085300;4.17406100;2023-04-24T04:45:59;21.25;;;7.10;;
9799;SDS011;4939;52.00085300;4.17406100;2023-04-24T04:48:26;25.60;;;7.47;;
9799;SDS011;4939;52.00085300;4.17406100;2023-04-24T04:50:52;21.45;;;6.18;;
9799;SDS011;4939;52.00085300;4.17406100;2023-04-24T04:53:18;16.33;;;6.53;;
9799;SDS011;4939;52.00085300;4.17406100;2023-04-24T04:55:44;24.50;;;7.90;;
9799;SDS011;4939;52.00085300;4.17406100;2023-04-24T04:58:11;17.70;;;5.38;;
9799;SDS011;4939;52.00085300;4.17406100;2023-04-24T05:00:37;25.08;;;8.25;;
9799;SDS011;4939;52.00085300;4.17406100;2023-04-24T05:03:03;21.08;;;6.95;;
9799;SDS011;4939;52.00085300;4.17406100;2023-04-24T05:05:28;29.50;;;8.35;;
9799;SDS011;4939;52.00085300;4.17406100;2023-04-24T05:07:54;21.10;;;6.95;;
9799;SDS011;4939;52.00085300;4.17406100;2023-04-24T05:10:20;20.60;;;6.65;;
9799;SDS011;4939;52.00085300;4.17406100;2023-04-24T05:12:46;23.90;;;6.28;;
9799;SDS011;4939;52.00085300;4.17406100;2023-04-24T05:15:12;19.63;;;6.20;;
9799;SDS011;4939;52.00085300;4.17406100;2023-04-24T05:17:37;19.95;;;7.43;;
9799;SDS011;4939;52.00085300;4.17406100;2023-04-24T05:20:05;19.15;;;5.95;;
9799;SDS011;4939;52.00085300;4.17406100;2023-04-24T05:22:31;19.23;;;7.32;;
9799;SDS011;4939;52.00085300;4.17406100;2023-04-24T05:24:57;25.33;;;7.03;;
9799;SDS011;4939;52.00085300;4.17406100;2023-04-24T05:27:23;21.15;;;6.85;;
9799;SDS011;4939;52.00085300;4.17406100;2023-04-24T05:29:49;30.48;;;7.25;;
9799;SDS011;4939;52.00085300;4.17406100;2023-04-24T05:32:16;28.27;;;6.33;;
9799;SDS011;4939;52.00085300;4.17406100;2023-04-24T05:34:42;25.35;;;5.65;;
9799;SDS011;4939;52.00085300;4.17406100;2023-04-24T05:37:08;22.13;;;4.78;;
9799;SDS011;4939;52.00085300;4.17406100;2023-04-24T05:39:35;21.23;;;4.88;;
9799;SDS011;4939;52.00085300;4.17406100;2023-04-24T05:42:01;22.95;;;4.72;;
9799;SDS011;4939;52.00085300;4.17406100;2023-04-24T05:44:29;18.77;;;5.28;;
9799;SDS011;4939;52.00085300;4.17406100;2023-04-24T05:46:55;24.52;;;4.80;;
9799;SDS011;4939;52.00085300;4.17406100;2023-04-24T05:49:21;23.67;;;5.22;;
9799;SDS011;4939;52.00085300;4.17406100;2023-04-24T05:51:47;17.77;;;4.45;;
9799;SDS011;4939;52.00085300;4.17406100;2023-04-24T05:54:13;18.67;;;4.25;;
9799;SDS011;4939;52.00085300;4.17406100;2023-04-24T05:56:39;17.55;;;4.50;;
9799;SDS011;4939;52.00085300;4.17406100;2023-04-24T05:59:05;15.00;;;3.63;;
9799;SDS011;4939;52.00085300;4.17406100;2023-04-24T06:01:31;19.95;;;4.18;;
9799;SDS011;4939;52.00085300;4.17406100;2023-04-24T06:03:57;15.30;;;3.72;;
9799;SDS011;4939;52.00085300;4.17406100;2023-04-24T06:06:23;17.30;;;4.00;;
9799;SDS011;4939;52.00085300;4.17406100;2023-04-24T06:08:49;19.75;;;3.88;;
9799;SDS011;4939;52.00085300;4.17406100;2023-04-24T06:11:15;14.93;;;3.42;;
9799;SDS011;4939;52.00085300;4.17406100;2023-04-24T06:13:41;22.98;;;4.22;;
9799;SDS011;4939;52.00085300;4.17406100;2023-04-24T06:16:07;16.58;;;3.58;;
9799;SDS011;4939;52.00085300;4.17406100;2023-04-24T06:18:32;19.40;;;3.70;;
9799;SDS011;4939;52.00085300;4.17406100;2023-04-24T06:20:58;20.75;;;3.33;;
9799;SDS011;4939;52.00085300;4.17406100;2023-04-24T06:23:24;16.33;;;3.65;;
9799;SDS011;4939;52.00085300;4.17406100;2023-04-24T06:25:50;15.05;;;3.35;;
9799;SDS011;4939;52.00085300;4.17406100;2023-04-24T06:28:16;16.63;;;3.13;;
9799;SDS011;4939;52.00085300;4.17406100;2023-04-24T06:30:42;14.60;;;3.40;;
9799;SDS011;4939;52.00085300;4.17406100;2023-04-24T06:33:08;21.60;;;3.58;;
9799;SDS011;4939;52.00085300;4.17406100;2023-04-24T06:35:35;15.95;;;2.90;;
9799;SDS011;4939;52.00085300;4.17406100;2023-04-24T06:38:03;13.10;;;2.80;;
9799;SDS011;4939;52.00085300;4.17406100;2023-04-24T06:40:29;13.52;;;3.10;;
9799;SDS011;4939;52.00085300;4.17406100;2023-04-24T06:42:55;15.52;;;3.10;;
9799;SDS011;4939;52.00085300;4.17406100;2023-04-24T06:45:20;17.80;;;2.90;;
9799;SDS011;4939;52.00085300;4.17406100;2023-04-24T06:47:46;9.93;;;2.17;;
9799;SDS011;4939;52.00085300;4.17406100;2023-04-24T06:50:12;12.18;;;3.00;;
9799;SDS011;4939;52.00085300;4.17406100;2023-04-24T06:52:38;10.48;;;2.03;;
9799;SDS011;4939;52.00085300;4.17406100;2023-04-24T06:55:05;13.77;;;2.53;;
9799;SDS011;4939;52.00085300;4.17406100;2023-04-24T06:57:31;12.95;;;2.25;;
9799;SDS011;4939;52.00085300;4.17406100;2023-04-24T06:59:57;14.27;;;3.00;;
9799;SDS011;4939;52.00085300;4.17406100;2023-04-24T07:02:24;12.13;;;2.45;;
9799;SDS011;4939;52.00085300;4.17406100;2023-04-24T07:04:50;11.45;;;2.63;;
9799;SDS011;4939;52.00085300;4.17406100;2023-04-24T07:07:16;9.38;;;2.15;;
9799;SDS011;4939;52.00085300;4.17406100;2023-04-24T07:09:41;8.20;;;1.98;;
9799;SDS011;4939;52.00085300;4.17406100;2023-04-24T07:12:07;11.25;;;2.75;;
9799;SDS011;4939;52.00085300;4.17406100;2023-04-24T07:14:35;13.32;;;2.72;;
9799;SDS011;4939;52.00085300;4.17406100;2023-04-24T07:17:04;6.15;;;2.00;;
9799;SDS011;4939;52.00085300;4.17406100;2023-04-24T07:19:31;14.50;;;1.85;;
9799;SDS011;4939;52.00085300;4.17406100;2023-04-24T07:21:59;10.07;;;2.10;;
9799;SDS011;4939;52.00085300;4.17406100;2023-04-24T07:24:25;15.23;;;2.45;;
9799;SDS011;4939;52.00085300;4.17406100;2023-04-24T07:26:51;14.63;;;2.35;;
9799;SDS011;4939;52.00085300;4.17406100;2023-04-24T07:29:18;13.50;;;2.63;;
9799;SDS011;4939;52.00085300;4.17406100;2023-04-24T07:31:44;12.98;;;1.98;;
9799;SDS011;4939;52.00085300;4.17406100;2023-04-24T07:34:10;9.30;;;1.80;;
9799;SDS011;4939;52.00085300;4.17406100;2023-04-24T07:36:36;8.43;;;1.75;;
9799;SDS011;4939;52.00085300;4.17406100;2023-04-24T07:39:03;15.02;;;3.05;;
9799;SDS011;4939;52.00085300;4.17406100;2023-04-24T07:41:30;7.05;;;2.13;;
9799;SDS011;4939;52.00085300;4.17406100;2023-04-24T07:43:55;6.38;;;1.63;;
9799;SDS011;4939;52.00085300;4.17406100;2023-04-24T07:46:21;7.03;;;1.88;;
9799;SDS011;4939;52.00085300;4.17406100;2023-04-24T07:48:48;10.55;;;2.13;;
9799;SDS011;4939;52.00085300;4.17406100;2023-04-24T07:51:14;7.07;;;1.52;;
9799;SDS011;4939;52.00085300;4.17406100;2023-04-24T07:53:40;5.88;;;1.58;;
9799;SDS011;4939;52.00085300;4.17406100;2023-04-24T07:56:06;13.88;;;3.65;;
9799;SDS011;4939;52.00085300;4.17406100;2023-04-24T07:58:32;6.55;;;1.77;;
9799;SDS011;4939;52.00085300;4.17406100;2023-04-24T08:00:58;9.75;;;1.73;;
9799;SDS011;4939;52.00085300;4.17406100;2023-04-24T08:03:24;4.63;;;1.20;;
9799;SDS011;4939;52.00085300;4.17406100;2023-04-24T08:05:50;4.93;;;1.40;;
9799;SDS011;4939;52.00085300;4.17406100;2023-04-24T08:08:16;8.95;;;1.42;;
9799;SDS011;4939;52.00085300;4.17406100;2023-04-24T08:10:42;16.73;;;1.35;;
9799;SDS011;4939;52.00085300;4.17406100;2023-04-24T08:13:07;4.25;;;1.17;;
9799;SDS011;4939;52.00085300;4.17406100;2023-04-24T08:15:33;3.75;;;1.13;;
9799;SDS011;4939;52.00085300;4.17406100;2023-04-24T08:17:59;5.95;;;1.50;;
9799;SDS011;4939;52.00085300;4.17406100;2023-04-24T08:20:25;5.65;;;1.27;;
9799;SDS011;4939;52.00085300;4.17406100;2023-04-24T08:22:51;5.20;;;0.88;;
9799;SDS011;4939;52.00085300;4.17406100;2023-04-24T08:25:17;4.97;;;1.10;;
9799;SDS011;4939;52.00085300;4.17406100;2023-04-24T08:27:44;5.97;;;1.05;;
9799;SDS011;4939;52.00085300;4.17406100;2023-04-24T08:30:10;6.13;;;1.17;;
9799;SDS011;4939;52.00085300;4.17406100;2023-04-24T08:32:36;4.97;;;1.20;;
9799;SDS011;4939;52.00085300;4.17406100;2023-04-24T08:35:02;5.00;;;0.75;;
9799;SDS011;4939;52.00085300;4.17406100;2023-04-24T08:37:28;8.90;;;1.00;;
9799;SDS011;4939;52.00085300;4.17406100;2023-04-24T08:39:54;5.22;;;1.20;;
9799;SDS011;4939;52.00085300;4.17406100;2023-04-24T08:42:20;5.45;;;1.50;;
9799;SDS011;4939;52.00085300;4.17406100;2023-04-24T08:44:47;5.70;;;1.05;;
9799;SDS011;4939;52.00085300;4.17406100;2023-04-24T08:47:14;7.13;;;0.82;;
9799;SDS011;4939;52.00085300;4.17406100;2023-04-24T08:49:41;8.00;;;1.10;;
9799;SDS011;4939;52.00085300;4.17406100;2023-04-24T08:52:07;3.70;;;0.90;;
9799;SDS011;4939;52.00085300;4.17406100;2023-04-24T08:54:34;8.35;;;1.00;;
9799;SDS011;4939;52.00085300;4.17406100;2023-04-24T08:57:00;6.25;;;0.90;;
9799;SDS011;4939;52.00085300;4.17406100;2023-04-24T08:59:30;3.58;;;0.60;;
9799;SDS011;4939;52.00085300;4.17406100;2023-04-24T09:01:56;5.03;;;0.70;;
9799;SDS011;4939;52.00085300;4.17406100;2023-04-24T09:04:23;2.67;;;0.52;;
9799;SDS011;4939;52.00085300;4.17406100;2023-04-24T09:06:56;4.47;;;1.27;;
9799;SDS011;4939;52.00085300;4.17406100;2023-04-24T09:09:26;6.80;;;0.98;;
9799;SDS011;4939;52.00085300;4.17406100;2023-04-24T09:11:57;8.15;;;1.40;;
9799;SDS011;4939;52.00085300;4.17406100;2023-04-24T09:14:23;8.43;;;1.10;;
9799;SDS011;4939;52.00085300;4.17406100;2023-04-24T09:16:50;4.22;;;0.55;;
9799;SDS011;4939;52.00085300;4.17406100;2023-04-24T09:19:16;6.22;;;1.33;;
9799;SDS011;4939;52.00085300;4.17406100;2023-04-24T09:21:42;4.65;;;1.35;;
9799;SDS011;4939;52.00085300;4.17406100;2023-04-24T09:24:19;3.55;;;1.00;;
9799;SDS011;4939;52.00085300;4.17406100;2023-04-24T09:26:48;5.38;;;0.98;;
9799;SDS011;4939;52.00085300;4.17406100;2023-04-24T09:29:17;9.38;;;0.77;;
9799;SDS011;4939;52.00085300;4.17406100;2023-04-24T09:31:44;6.15;;;1.40;;
9799;SDS011;4939;52.00085300;4.17406100;2023-04-24T09:34:10;3.63;;;0.70;;
9799;SDS011;4939;52.00085300;4.17406100;2023-04-24T09:39:04;3.17;;;0.77;;
9799;SDS011;4939;52.00085300;4.17406100;2023-04-24T09:41:31;3.05;;;0.68;;
9799;SDS011;4939;52.00085300;4.17406100;2023-04-24T09:44:09;4.03;;;0.80;;
9799;SDS011;4939;52.00085300;4.17406100;2023-04-24T09:46:42;6.95;;;0.82;;
9799;SDS011;4939;52.00085300;4.17406100;2023-04-24T09:49:11;3.60;;;0.70;;
9799;SDS011;4939;52.00085300;4.17406100;2023-04-24T09:51:40;5.25;;;0.70;;
9799;SDS011;4939;52.00085300;4.17406100;2023-04-24T09:54:15;3.53;;;0.93;;
9799;SDS011;4939;52.00085300;4.17406100;2023-04-24T09:56:45;7.13;;;1.20;;
9799;SDS011;4939;52.00085300;4.17406100;2023-04-24T09:59:16;8.32;;;1.10;;
9799;SDS011;4939;52.00085300;4.17406100;2023-04-24T10:01:43;5.82;;;0.77;;
9799;SDS011;4939;52.00085300;4.17406100;2023-04-24T10:04:17;3.42;;;0.70;;
9799;SDS011;4939;52.00085300;4.17406100;2023-04-24T10:06:51;8.48;;;1.13;;
9799;SDS011;4939;52.00085300;4.17406100;2023-04-24T10:09:18;6.97;;;1.25;;
9799;SDS011;4939;52.00085300;4.17406100;2023-04-24T10:11:45;7.82;;;0.88;;
9799;SDS011;4939;52.00085300;4.17406100;2023-04-24T10:14:16;3.42;;;0.80;;
9799;SDS011;4939;52.00085300;4.17406100;2023-04-24T10:16:44;8.30;;;1.17;;
9799;SDS011;4939;52.00085300;4.17406100;2023-04-24T10:19:11;7.93;;;1.50;;
9799;SDS011;4939;52.00085300;4.17406100;2023-04-24T10:21:38;12.57;;;1.23;;
9799;SDS011;4939;52.00085300;4.17406100;2023-04-24T10:24:11;4.20;;;0.77;;
9799;SDS011;4939;52.00085300;4.17406100;2023-04-24T10:26:37;8.40;;;1.45;;
9799;SDS011;4939;52.00085300;4.17406100;2023-04-24T10:29:05;3.78;;;0.75;;
9799;SDS011;4939;52.00085300;4.17406100;2023-04-24T10:31:35;7.85;;;1.30;;
9799;SDS011;4939;52.00085300;4.17406100;2023-04-24T10:34:03;7.40;;;1.10;;
9799;SDS011;4939;52.00085300;4.17406100;2023-04-24T10:36:30;10.95;;;1.60;;
9799;SDS011;4939;52.00085300;4.17406100;2023-04-24T10:38:58;4.10;;;0.50;;
9799;SDS011;4939;52.00085300;4.17406100;2023-04-24T10:41:26;5.93;;;0.77;;
9799;SDS011;4939;52.00085300;4.17406100;2023-04-24T10:44:07;4.13;;;0.50;;
9799;SDS011;4939;52.00085300;4.17406100;2023-04-24T10:46:37;4.55;;;0.60;;
9799;SDS011;4939;52.00085300;4.17406100;2023-04-24T10:49:06;2.80;;;0.40;;
9799;SDS011;4939;52.00085300;4.17406100;2023-04-24T10:56:52;10.25;;;0.77;;
9799;SDS011;4939;52.00085300;4.17406100;2023-04-24T10:59:25;2.38;;;0.70;;
9799;SDS011;4939;52.00085300;4.17406100;2023-04-24T11:01:55;5.35;;;0.60;;
9799;SDS011;4939;52.00085300;4.17406100;2023-04-24T11:04:30;2.97;;;1.25;;
9799;SDS011;4939;52.00085300;4.17406100;2023-04-24T11:06:57;4.53;;;0.63;;
9799;SDS011;4939;52.00085300;4.17406100;2023-04-24T11:09:26;5.00;;;1.00;;
9799;SDS011;4939;52.00085300;4.17406100;2023-04-24T11:12:02;5.50;;;0.80;;
9799;SDS011;4939;52.00085300;4.17406100;2023-04-24T11:17:30;5.15;;;0.80;;
9799;SDS011;4939;52.00085300;4.17406100;2023-04-24T11:20:05;6.47;;;1.10;;
9799;SDS011;4939;52.00085300;4.17406100;2023-04-24T11:22:33;5.60;;;1.30;;
9799;SDS011;4939;52.00085300;4.17406100;2023-04-24T11:25:00;10.98;;;1.20;;
9799;SDS011;4939;52.00085300;4.17406100;2023-04-24T11:27:29;5.32;;;1.10;;
9799;SDS011;4939;52.00085300;4.17406100;2023-04-24T11:30:06;6.25;;;1.23;;
9799;SDS011;4939;52.00085300;4.17406100;2023-04-24T11:35:00;6.97;;;1.23;;
9799;SDS011;4939;52.00085300;4.17406100;2023-04-24T11:37:28;11.45;;;1.80;;
9799;SDS011;4939;52.00085300;4.17406100;2023-04-24T11:40:09;10.10;;;1.65;;
9799;SDS011;4939;52.00085300;4.17406100;2023-04-24T11:42:36;4.85;;;1.17;;
9799;SDS011;4939;52.00085300;4.17406100;2023-04-24T11:45:10;7.38;;;1.63;;
9799;SDS011;4939;52.00085300;4.17406100;2023-04-24T11:47:37;11.00;;;1.70;;
9799;SDS011;4939;52.00085300;4.17406100;2023-04-24T11:50:05;6.70;;;1.67;;
9799;SDS011;4939;52.00085300;4.17406100;2023-04-24T11:52:33;10.93;;;2.30;;
9799;SDS011;4939;52.00085300;4.17406100;2023-04-24T11:55:02;10.63;;;2.17;;
9799;SDS011;4939;52.00085300;4.17406100;2023-04-24T11:57:28;12.52;;;1.77;;
9799;SDS011;4939;52.00085300;4.17406100;2023-04-24T12:00:02;10.32;;;2.15;;
9799;SDS011;4939;52.00085300;4.17406100;2023-04-24T12:02:30;7.90;;;1.60;;
9799;SDS011;4939;52.00085300;4.17406100;2023-04-24T12:04:56;10.55;;;1.83;;
9799;SDS011;4939;52.00085300;4.17406100;2023-04-24T12:07:22;10.00;;;1.98;;
9799;SDS011;4939;52.00085300;4.17406100;2023-04-24T12:09:56;7.97;;;1.88;;
9799;SDS011;4939;52.00085300;4.17406100;2023-04-24T12:12:25;8.00;;;1.40;;
9799;SDS011;4939;52.00085300;4.17406100;2023-04-24T12:14:55;6.38;;;1.83;;
9799;SDS011;4939;52.00085300;4.17406100;2023-04-24T12:17:29;10.52;;;2.13;;
9799;SDS011;4939;52.00085300;4.17406100;2023-04-24T12:20:03;10.00;;;1.80;;
9799;SDS011;4939;52.00085300;4.17406100;2023-04-24T12:22:47;7.53;;;2.00;;
9799;SDS011;4939;52.00085300;4.17406100;2023-04-24T12:25:20;9.57;;;1.90;;
9799;SDS011;4939;52.00085300;4.17406100;2023-04-24T12:27:54;7.50;;;1.92;;
9799;SDS011;4939;52.00085300;4.17406100;2023-04-24T12:30:47;6.65;;;1.50;;
9799;SDS011;4939;52.00085300;4.17406100;2023-04-24T12:33:20;7.45;;;1.77;;
9799;SDS011;4939;52.00085300;4.17406100;2023-04-24T12:35:47;15.45;;;1.92;;
9799;SDS011;4939;52.00085300;4.17406100;2023-04-24T12:38:13;9.95;;;1.80;;
9799;SDS011;4939;52.00085300;4.17406100;2023-04-24T12:40:41;14.98;;;1.80;;
9799;SDS011;4939;52.00085300;4.17406100;2023-04-24T12:43:17;11.50;;;2.40;;
9799;SDS011;4939;52.00085300;4.17406100;2023-04-24T12:45:44;12.77;;;2.45;;
9799;SDS011;4939;52.00085300;4.17406100;2023-04-24T12:48:10;14.95;;;2.22;;
9799;SDS011;4939;52.00085300;4.17406100;2023-04-24T12:50:36;10.10;;;2.17;;
9799;SDS011;4939;52.00085300;4.17406100;2023-04-24T12:53:03;10.85;;;2.10;;
9799;SDS011;4939;52.00085300;4.17406100;2023-04-24T12:55:28;25.20;;;3.25;;
9799;SDS011;4939;52.00085300;4.17406100;2023-04-24T12:57:54;15.10;;;2.92;;
9799;SDS011;4939;52.00085300;4.17406100;2023-04-24T13:00:21;11.25;;;2.47;;
9799;SDS011;4939;52.00085300;4.17406100;2023-04-24T13:02:47;12.13;;;2.72;;
9799;SDS011;4939;52.00085300;4.17406100;2023-04-24T13:05:13;9.77;;;2.65;;
9799;SDS011;4939;52.00085300;4.17406100;2023-04-24T13:07:39;18.67;;;3.13;;
9799;SDS011;4939;52.00085300;4.17406100;2023-04-24T13:10:05;16.33;;;2.80;;
9799;SDS011;4939;52.00085300;4.17406100;2023-04-24T13:12:31;14.25;;;2.42;;
9799;SDS011;4939;52.00085300;4.17406100;2023-04-24T13:14:57;7.22;;;1.98;;
9799;SDS011;4939;52.00085300;4.17406100;2023-04-24T13:17:23;12.13;;;2.47;;
9799;SDS011;4939;52.00085300;4.17406100;2023-04-24T13:19:50;11.70;;;2.33;;
9799;SDS011;4939;52.00085300;4.17406100;2023-04-24T13:22:16;11.55;;;2.70;;